• Join FlightAware (Why Join?)
  • Login
  • US Flag 
10:59PM EDT


 

Airport Tracker/Info


-or-


 

Live Flight TrackerFlight Track Log ✈ SKW5550 ✈ 17-Aug-2013 ✈ KCOD - KDEN

Flight Track Log - Related Links

Times and Time Zones

All times are in EDT time to prevent confusion due to time zone crossing. See the SKW5550 flight status page for this flight to view local times or setup timezone preferences in your user account.

Time Position Orientation Groundspeed Altitude Reporting Facility
EDT Latitude Longitude Course Direction KTS MPH feet Rate Location/Type
08:13AM 44.5456 -108.9844 144° Southeast 157 181 6,400  Level Salt Lake Center
08:14AM 44.6028 -108.9678 12° North 204 235 8,200 1,740 Climbing Salt Lake Center
08:15AM 44.2615 -108.7601 144° Southeast  Level Estimated
08:15AM 44.6472 -108.9058 45° Northeast 236 272 10,000  Level Salt Lake Center
08:16AM 44.1751 -108.6727 144° Southeast  Level Estimated
08:16AM 44.5794 -108.8306 142° Southeast 284 327 11,300  Level Salt Lake Center
08:17AM 44.0887 -108.5856 144° Southeast  Level Estimated
08:17AM 44.4972 -108.8475 188° South 298 343 12,800  Level Salt Lake Center
08:18AM 43.9914 -108.4878 144° Southeast  Level Estimated
08:18AM 44.4014 -108.8353 175° South 320 368 13,600  Level Salt Lake Center
08:19AM 44.3031 -108.7825 159° South 370 426 15,100 1,500 Climbing Salt Lake Center
08:20AM 44.2067 -108.7272 158° South 373 429 16,700 1,500 Climbing Salt Lake Center
08:21AM 44.1125 -108.6733 158° South 371 427 18,200 1,620 Climbing Salt Lake Center
08:22AM 44.0197 -108.6197 157° South 365 420 20,000 1,560 Climbing Salt Lake Center
08:23AM 43.9286 -108.5675 158° South 359 413 21,400 1,200 Climbing Salt Lake Center
08:24AM 43.8436 -108.4825 144° Southeast 376 433 22,500 1,020 Climbing Salt Lake Center
08:25AM 43.7578 -108.3969 144° Southeast 382 440 23,500 900 Climbing Salt Lake Center
08:26AM 43.6692 -108.3131 146° Southeast 387 445 24,400 720 Climbing Salt Lake Center
08:27AM 43.5769 -108.2219 144° Southeast 405 466 25,000 540 Climbing Salt Lake Center
08:28AM 43.4814 -108.1297 145° Southeast 420 483 25,600 540 Climbing Salt Lake Center
08:29AM 43.3836 -108.0361 145° Southeast 428 493 26,200 540 Climbing Salt Lake Center
08:31AM 43.2842 -107.9378 144° Southeast 438 504 26,800 540 Climbing Salt Lake Center
08:32AM 43.1833 -107.8439 146° Southeast 441 507 27,400 540 Climbing Salt Lake Center
08:33AM 43.0819 -107.7456 145° Southeast 445 512 28,000 540 Climbing Salt Lake Center
08:34AM 42.9808 -107.6500 145° Southeast 445 512 28,600 600 Climbing Salt Lake Center
08:35AM 42.8689 -107.5419 145° Southeast 445 512 29,300 600 Climbing Salt Lake Center
08:36AM 42.7711 -107.4503 145° Southeast 445 512 29,900 600 Climbing Salt Lake Center
08:36AM 42.6739 -107.3572 145° Southeast 445 512 30,500 540 Climbing Denver Center
08:37AM 42.5925 -107.2803 145° Southeast 447 514 31,000 240 Climbing Denver Center
08:38AM 42.4764 -107.1733 146° Southeast 452 520 31,000  Level Denver Center
08:39AM 42.3569 -107.0622 145° Southeast 465 535 31,000  Level Denver Center
08:40AM 42.2525 -106.9664 146° Southeast 474 545 31,000  Level Denver Center
08:41AM 42.1456 -106.8750 148° Southeast 475 547 31,000  Level Denver Center
08:42AM 42.0192 -106.7661 147° Southeast 480 552 31,000  Level Denver Center
08:43AM 41.9114 -106.6742 148° Southeast 478 550 31,000  Level Denver Center
08:44AM 41.8031 -106.5825 148° Southeast 481 554 31,000  Level Denver Center
08:45AM 41.6911 -106.4878 148° Southeast 480 552 31,000  Level Denver Center
08:47AM 41.5633 -106.3794 148° Southeast 486 559 31,000  Level Denver Center
08:48AM 41.4561 -106.2881 147° Southeast 482 555 31,000  Level Denver Center
08:49AM 41.3486 -106.1983 148° Southeast 479 551 31,000  Level Denver Center
08:50AM 41.2225 -106.0942 148° Southeast 477 549 31,000 -540 Level Denver Center
08:51AM 41.1125 -106.0028 148° Southeast 485 558 30,000 -1,260 Descending Denver Center
08:52AM 41.0036 -105.9117 148° Southeast 487 560 28,500 -1,740 Descending Denver Center
08:53AM 40.8864 -105.8164 148° Southeast 494 568 26,600 -1,980 Descending Denver Center
08:54AM 40.7731 -105.7222 148° Southeast 485 558 24,600 -1,980 Descending Denver Center
08:55AM 40.6958 -105.6053 131° Southeast 427 491 22,700 -1,800 Descending Denver Center
08:56AM 40.6303 -105.4881 126° Southeast 404 465 21,000 -1,620 Descending Denver Center
08:57AM 40.5686 -105.3764 126° Southeast 382 440 19,500 -1,440 Descending Denver Center
08:58AM 40.5078 -105.2653 126° Southeast 376 433 18,200 -1,200 Descending Denver Center
08:59AM 40.4528 -105.1442 121° Southeast 354 407 17,100 -1,200 Descending Denver Center
09:00AM 40.3931 -105.0494 130° Southeast 339 390 15,900 -1,140 Descending Denver Center
09:01AM 40.3264 -104.9469 130° Southeast 346 398 14,900 -1,140 Descending Denver Center
09:02AM 40.2536 -104.8542 136° Southeast 368 423 13,700 -1,500 Descending Denver Center
09:03AM 40.1706 -104.7964 152° Southeast 337 388 11,900 -1,800 Descending Denver Center
09:04AM 40.0942 -104.7403 151° Southeast 315 362 10,100 -1,380 Descending Denver Center
09:05AM 40.0242 -104.6894 151° Southeast 283 326 9,100 -1,620 Descending Denver Center
09:06AM 39.9678 -104.6864 178° South 205 236 6,900 -1,620 Descending Denver Center
09:07AM 39.9236 -104.6864 180° South 163 188 5,900 -840 Descending Denver Center
09:08AM 39.8831 -104.6867 180° South 146 168 5,300 -600 Descending Denver Center